createdAt,value
2022-10-11T00:02:46.650Z,95.49
2022-10-11T00:05:49.987Z,95.27
2022-10-11T00:08:52.479Z,95.18
2022-10-11T00:11:56.352Z,95.23
2022-10-11T00:14:59.018Z,95.30
2022-10-11T00:18:05.266Z,94.81
2022-10-11T00:21:16.197Z,94.48
2022-10-11T00:24:19.209Z,94.53
2022-10-11T00:27:21.680Z,94.61
2022-10-11T00:30:26.516Z,94.59
2022-10-11T00:33:29.157Z,94.92
2022-10-11T00:36:32.288Z,94.98
2022-10-11T00:39:34.819Z,94.90
2022-10-11T00:42:37.646Z,94.51
2022-10-11T00:45:40.087Z,94.43
2022-10-11T00:48:46.992Z,94.36
2022-10-11T00:51:56.401Z,94.30
2022-10-11T00:55:02.774Z,94.01
2022-10-11T00:58:06.525Z,93.78
2022-10-11T01:01:09.594Z,93.53
2022-10-11T01:04:12.450Z,93.22
2022-10-11T01:07:16.545Z,93.19
2022-10-11T01:10:19.172Z,92.90
2022-10-11T01:13:40.911Z,92.64
2022-10-11T01:16:58.400Z,92.18
2022-10-11T01:20:26.495Z,92.04
2022-10-11T01:23:51.585Z,91.88
2022-10-11T01:27:14.590Z,91.83
2022-10-11T01:30:32.204Z,91.97
2022-10-11T01:33:41.981Z,91.77
2022-10-11T01:36:52.233Z,91.75
2022-10-11T01:40:00.926Z,91.63
2022-10-11T01:43:04.179Z,91.49
2022-10-11T01:46:08.891Z,91.35
2022-10-11T01:49:11.872Z,91.44
2022-10-11T01:52:14.787Z,91.14
2022-10-11T01:55:30.035Z,91.17
2022-10-11T01:58:54.685Z,91.58
2022-10-11T02:02:13.117Z,91.68
2022-10-11T02:05:50.849Z,92.25
2022-10-11T02:09:07.163Z,92.01
2022-10-11T02:12:13.101Z,91.72
2022-10-11T02:15:16.510Z,91.72
2022-10-11T02:18:23.276Z,91.85
2022-10-11T02:21:26.425Z,91.90
2022-10-11T02:24:32.283Z,92.01
2022-10-11T02:27:37.380Z,91.89
2022-10-11T02:30:41.851Z,92.53
2022-10-11T02:33:50.495Z,91.81
2022-10-11T02:37:00.622Z,91.72
2022-10-11T02:40:23.378Z,91.49
2022-10-11T02:43:49.790Z,91.45
2022-10-11T02:46:52.544Z,91.52
2022-10-11T02:49:55.513Z,91.58
2022-10-11T02:52:58.253Z,91.65
2022-10-11T02:56:01.170Z,92.23
2022-10-11T02:59:03.883Z,91.73
2022-10-11T03:02:06.875Z,91.33
2022-10-11T03:05:09.882Z,91.34
2022-10-11T03:08:14.714Z,91.21
2022-10-11T03:11:17.523Z,91.58
2022-10-11T03:14:20.372Z,91.39
2022-10-11T03:17:38.010Z,91.02
2022-10-11T03:20:40.893Z,90.86
2022-10-11T03:23:43.512Z,91.16
2022-10-11T03:26:46.408Z,91.03
2022-10-11T03:29:49.148Z,91.24
2022-10-11T03:32:52.027Z,91.38
2022-10-11T03:35:54.578Z,91.02
2022-10-11T03:38:57.819Z,91.83
2022-10-11T03:42:00.592Z,91.71
2022-10-11T03:45:08.464Z,91.04
2022-10-11T03:48:11.121Z,91.01
2022-10-11T03:51:15.381Z,91.27
2022-10-11T03:54:17.925Z,91.25
2022-10-11T03:57:20.803Z,91.21
2022-10-11T04:00:23.334Z,91.58
2022-10-11T04:03:26.425Z,91.51
2022-10-11T04:06:29.013Z,91.49
2022-10-11T04:09:32.282Z,91.67
2022-10-11T04:12:34.937Z,91.55
2022-10-11T04:15:38.387Z,91.13
2022-10-11T04:18:42.146Z,90.84
2022-10-11T04:21:45.021Z,90.69
2022-10-11T04:24:47.991Z,90.92
2022-10-11T04:27:51.045Z,90.66
2022-10-11T04:30:53.525Z,90.41
2022-10-11T04:33:57.245Z,90.94
2022-10-11T04:36:59.833Z,90.97
2022-10-11T04:40:03.008Z,90.45
2022-10-11T04:43:05.802Z,90.13
2022-10-11T04:46:09.925Z,89.79
2022-10-11T04:49:14.982Z,88.88
2022-10-11T04:52:21.065Z,88.61
2022-10-11T04:55:25.998Z,88.40
2022-10-11T04:58:30.195Z,88.18
2022-10-11T05:01:32.834Z,87.98
2022-10-11T05:04:35.963Z,88.18
2022-10-11T05:07:38.825Z,88.07
2022-10-11T05:10:41.709Z,87.80
2022-10-11T05:13:46.290Z,87.94
2022-10-11T05:16:49.349Z,88.01
2022-10-11T05:19:52.969Z,87.82
2022-10-11T05:22:55.823Z,87.85
2022-10-11T05:25:58.779Z,87.90
2022-10-11T05:29:01.758Z,87.83
2022-10-11T05:32:04.637Z,87.70
2022-10-11T05:35:07.971Z,87.79
2022-10-11T05:38:10.824Z,87.56
2022-10-11T05:41:15.098Z,87.36
2022-10-11T05:44:17.797Z,87.48
2022-10-11T05:47:20.782Z,87.02
2022-10-11T05:50:24.589Z,86.70
2022-10-11T05:53:27.563Z,86.38
2022-10-11T05:56:30.412Z,86.17
2022-10-11T05:59:35.397Z,86.08
2022-10-11T06:02:38.292Z,86.19
2022-10-11T06:05:42.001Z,85.83
2022-10-11T06:08:45.259Z,85.23
2022-10-11T06:11:48.288Z,85.09
2022-10-11T06:14:51.152Z,85.02
2022-10-11T06:17:54.569Z,83.78
2022-10-11T06:20:58.567Z,83.58
2022-10-11T06:24:02.888Z,83.21
2022-10-11T06:27:05.424Z,82.33
2022-10-11T06:30:09.627Z,81.08
2022-10-11T06:33:12.964Z,80.01
2022-10-11T06:36:17.103Z,79.43
2022-10-11T06:39:19.634Z,79.70
2022-10-11T06:42:22.514Z,80.14
2022-10-11T06:45:25.094Z,79.13
2022-10-11T06:48:28.071Z,79.11
2022-10-11T06:51:31.220Z,78.84
2022-10-11T06:54:34.217Z,78.55
2022-10-11T06:57:37.058Z,79.02
2022-10-11T07:00:40.249Z,78.63
2022-10-11T07:03:42.979Z,78.82
2022-10-11T07:06:45.889Z,78.99
2022-10-11T07:09:48.482Z,78.46
2022-10-11T07:12:51.361Z,78.58
2022-10-11T07:15:54.108Z,78.26
2022-10-11T07:19:00.771Z,78.03
2022-10-11T07:22:04.000Z,78.56
2022-10-11T07:25:07.610Z,78.21
2022-10-11T07:28:10.286Z,77.92
2022-10-11T07:31:19.529Z,77.59
2022-10-11T07:34:23.021Z,77.26
2022-10-11T07:37:26.433Z,76.34
2022-10-11T07:40:40.580Z,76.22
2022-10-11T07:43:43.774Z,76.00
2022-10-11T07:46:46.859Z,75.10
2022-10-11T07:49:49.887Z,74.11
2022-10-11T07:52:52.562Z,73.53
2022-10-11T07:55:55.590Z,73.40
2022-10-11T07:59:00.303Z,72.63
2022-10-11T08:02:03.380Z,72.70
2022-10-11T08:05:06.633Z,72.20
2022-10-11T08:08:09.491Z,71.32
2022-10-11T08:11:20.729Z,71.04
2022-10-11T08:14:23.508Z,71.01
2022-10-11T08:17:26.489Z,69.74
2022-10-11T08:20:31.212Z,68.75
2022-10-11T08:23:34.135Z,63.11
2022-10-11T08:26:36.855Z,65.44
2022-10-11T08:29:39.780Z,58.84
2022-10-11T08:32:42.640Z,54.29
2022-10-11T08:35:45.995Z,51.61
2022-10-11T08:38:48.816Z,49.72
2022-10-11T08:41:54.940Z,50.04
2022-10-11T08:45:16.693Z,51.18
2022-10-11T08:48:33.178Z,47.68
2022-10-11T08:51:40.422Z,44.87
2022-10-11T08:54:56.609Z,44.81
2022-10-11T08:57:59.508Z,44.22
2022-10-11T09:01:03.478Z,44.66
2022-10-11T09:04:06.296Z,48.61
2022-10-11T09:07:27.977Z,49.76
2022-10-11T09:10:55.271Z,50.34
2022-10-11T09:14:15.394Z,49.57
2022-10-11T09:17:52.132Z,48.80
2022-10-11T09:21:33.281Z,47.50
2022-10-11T09:25:27.398Z,45.67
2022-10-11T09:28:42.288Z,41.64
2022-10-11T09:31:49.016Z,41.25
2022-10-11T09:35:19.302Z,40.28
2022-10-11T09:38:28.093Z,41.04
2022-10-11T09:41:46.555Z,40.31
2022-10-11T09:44:51.239Z,38.46
2022-10-11T09:47:56.756Z,39.78
2022-10-11T09:51:03.307Z,38.00
2022-10-11T09:54:07.104Z,40.42
2022-10-11T09:57:31.098Z,39.21
2022-10-11T10:00:34.672Z,38.77
2022-10-11T10:03:42.868Z,37.35
2022-10-11T10:06:45.622Z,38.97
2022-10-11T10:09:49.821Z,41.84
2022-10-11T10:12:59.174Z,42.76
2022-10-11T10:16:04.406Z,38.63
2022-10-11T10:19:17.826Z,41.01
2022-10-11T10:22:27.737Z,41.53
2022-10-11T10:25:39.567Z,40.65
2022-10-11T10:29:09.681Z,41.86
2022-10-11T10:32:27.818Z,41.77
2022-10-11T10:35:57.017Z,42.46
2022-10-11T10:39:07.476Z,39.10
2022-10-11T10:42:15.173Z,42.16
2022-10-11T10:45:21.576Z,41.48
2022-10-11T10:49:01.747Z,41.61
2022-10-11T10:52:03.352Z,44.70
2022-10-11T10:55:37.013Z,45.75
2022-10-11T10:58:49.794Z,44.59
2022-10-11T11:02:21.475Z,44.55
2022-10-11T11:05:45.655Z,44.56
2022-10-11T11:09:12.845Z,45.23
2022-10-11T11:12:20.301Z,51.77
2022-10-11T11:15:38.471Z,52.97
2022-10-11T11:19:01.014Z,55.33
2022-10-11T11:22:36.367Z,56.33
2022-10-11T11:25:54.207Z,56.29
2022-10-11T11:29:18.109Z,56.73
2022-10-11T11:32:47.586Z,57.06
2022-10-11T11:35:54.213Z,59.19
2022-10-11T11:39:03.720Z,58.32
2022-10-11T11:42:14.384Z,58.74
2022-10-11T11:45:26.534Z,59.21
2022-10-11T11:48:29.597Z,59.07
2022-10-11T11:51:39.371Z,59.09
2022-10-11T11:54:49.494Z,58.75
2022-10-11T11:58:04.570Z,58.75
2022-10-11T12:01:30.927Z,59.31
2022-10-11T12:04:40.474Z,58.76
2022-10-11T12:07:56.257Z,60.03
2022-10-11T12:11:03.540Z,60.91
2022-10-11T12:14:35.130Z,61.07
2022-10-11T12:17:56.725Z,61.19
2022-10-11T12:21:15.918Z,60.43
2022-10-11T12:24:24.023Z,60.53
2022-10-11T12:27:46.104Z,62.12
2022-10-11T12:30:50.901Z,61.09
2022-10-11T12:34:15.272Z,62.15
2022-10-11T12:37:18.374Z,62.51
2022-10-11T12:40:36.642Z,62.66
2022-10-11T12:43:48.718Z,62.90
2022-10-11T12:46:51.596Z,62.64
2022-10-11T12:50:25.841Z,59.97
2022-10-11T12:54:21.600Z,59.83
2022-10-11T12:57:46.736Z,60.02
2022-10-11T13:00:52.492Z,61.32
2022-10-11T13:04:04.035Z,61.18
2022-10-11T13:07:23.586Z,61.92
2022-10-11T13:10:44.026Z,61.97
2022-10-11T13:13:58.875Z,61.79
2022-10-11T13:17:15.013Z,60.60
2022-10-11T13:20:17.991Z,60.26
2022-10-11T13:23:25.029Z,60.24
2022-10-11T13:26:29.805Z,60.25
2022-10-11T13:29:38.644Z,60.37
2022-10-11T13:32:43.101Z,59.41
2022-10-11T13:35:46.458Z,60.48
2022-10-11T13:39:00.216Z,60.56
2022-10-11T13:42:07.793Z,60.52
2022-10-11T13:45:13.317Z,60.36
2022-10-11T13:48:16.842Z,60.46
2022-10-11T13:51:32.615Z,59.97
2022-10-11T13:54:55.328Z,60.28
2022-10-11T13:57:59.147Z,61.12
2022-10-11T14:01:05.234Z,61.08
2022-10-11T14:04:10.505Z,61.29
2022-10-11T14:07:33.938Z,61.54
2022-10-11T14:10:37.720Z,61.56
2022-10-11T14:13:50.096Z,62.17
2022-10-11T14:17:13.766Z,62.53
2022-10-11T14:20:32.312Z,63.01
2022-10-11T14:23:36.045Z,63.77
2022-10-11T14:26:41.813Z,62.58
2022-10-11T14:29:55.613Z,62.88
2022-10-11T14:33:08.254Z,62.93
2022-10-11T14:36:12.518Z,63.56
2022-10-11T14:39:18.423Z,63.22
2022-10-11T14:42:21.243Z,64.11
2022-10-11T14:45:23.994Z,64.35
2022-10-11T14:48:50.465Z,65.31
2022-10-11T14:51:50.753Z,65.76
2022-10-11T14:55:02.194Z,66.52
2022-10-11T14:58:14.206Z,67.52
2022-10-11T15:01:17.877Z,67.64
2022-10-11T15:04:25.860Z,67.13
2022-10-11T15:07:30.650Z,66.94
2022-10-11T15:10:40.958Z,67.12
2022-10-11T15:13:44.189Z,68.13
2022-10-11T15:16:47.045Z,68.28
2022-10-11T15:19:51.775Z,68.10
2022-10-11T15:22:55.470Z,67.44
2022-10-11T15:25:58.388Z,67.41
2022-10-11T15:29:00.937Z,67.83
2022-10-11T15:32:03.911Z,68.34
2022-10-11T15:35:07.116Z,68.11
2022-10-11T15:38:19.997Z,68.30
2022-10-11T15:41:23.986Z,67.88
2022-10-11T15:44:26.978Z,68.15
2022-10-11T15:47:29.547Z,69.11
2022-10-11T15:50:35.308Z,69.65
2022-10-11T15:53:37.806Z,70.39
2022-10-11T15:56:40.694Z,70.82
2022-10-11T15:59:43.284Z,71.23
2022-10-11T16:02:46.162Z,71.54
2022-10-11T16:05:49.090Z,73.67
2022-10-11T16:08:51.686Z,73.98
2022-10-11T16:11:54.562Z,75.07
2022-10-11T16:14:57.152Z,75.54
2022-10-11T16:18:00.011Z,75.71
2022-10-11T16:21:06.987Z,76.22
2022-10-11T16:24:10.149Z,76.58
2022-10-11T16:27:16.536Z,77.02
2022-10-11T16:30:22.738Z,77.20
2022-10-11T16:33:25.501Z,77.57
2022-10-11T16:36:40.562Z,78.05
2022-10-11T16:39:44.306Z,78.98
2022-10-11T16:42:47.752Z,80.84
2022-10-11T16:45:57.498Z,80.54
2022-10-11T16:49:00.386Z,80.71
2022-10-11T16:52:04.052Z,80.88
2022-10-11T16:55:07.185Z,81.46
2022-10-11T16:58:10.269Z,81.33
2022-10-11T17:01:13.351Z,81.33
2022-10-11T17:04:16.117Z,80.80
2022-10-11T17:07:19.141Z,80.56
2022-10-11T17:10:39.361Z,81.31
2022-10-11T17:13:42.425Z,81.36
2022-10-11T17:16:45.577Z,82.17
2022-10-11T17:19:48.467Z,83.00
2022-10-11T17:22:51.740Z,83.39
2022-10-11T17:25:54.758Z,84.62
2022-10-11T17:28:58.989Z,84.97
2022-10-11T17:32:02.306Z,84.87
2022-10-11T17:35:05.275Z,84.76
2022-10-11T17:38:08.189Z,84.91
2022-10-11T17:41:11.612Z,84.90
2022-10-11T17:44:17.389Z,85.21
2022-10-11T17:47:19.886Z,85.74
2022-10-11T17:50:22.762Z,85.92
2022-10-11T17:53:25.446Z,87.91
2022-10-11T17:56:31.447Z,89.29
2022-10-11T17:59:37.762Z,87.87
2022-10-11T18:02:41.829Z,88.42
2022-10-11T18:05:44.959Z,91.83
2022-10-11T18:08:47.606Z,91.47
2022-10-11T18:11:51.132Z,91.73
2022-10-11T18:14:53.626Z,91.98
2022-10-11T18:17:59.716Z,92.34
2022-10-11T18:21:02.334Z,93.20
2022-10-11T18:24:16.665Z,93.85
2022-10-11T18:27:19.189Z,96.47
2022-10-11T18:30:22.415Z,95.30
2022-10-11T18:33:24.982Z,95.41
2022-10-11T18:36:30.146Z,95.22
2022-10-11T18:42:49.789Z,93.39
2022-10-11T18:45:52.376Z,93.57
2022-10-11T18:48:56.672Z,94.10
2022-10-11T18:51:59.213Z,95.61
2022-10-11T18:55:04.653Z,96.00
2022-10-11T18:58:07.617Z,96.00
2022-10-11T19:01:16.136Z,95.49
2022-10-11T19:04:19.868Z,95.81
2022-10-11T19:07:23.311Z,97.00
2022-10-11T19:10:26.043Z,97.72
2022-10-11T19:13:28.880Z,97.16
2022-10-11T19:16:31.520Z,97.71
2022-10-11T19:19:34.847Z,96.59
2022-10-11T19:22:37.431Z,96.25
2022-10-11T19:25:40.252Z,95.87
2022-10-11T19:28:43.299Z,96.27
2022-10-11T19:31:52.123Z,95.68
2022-10-11T19:34:54.624Z,96.25
2022-10-11T19:37:57.504Z,95.80
2022-10-11T19:41:01.066Z,95.10
2022-10-11T19:44:04.345Z,95.07
2022-10-11T19:47:07.089Z,94.89
2022-10-11T19:50:10.826Z,95.37
2022-10-11T19:53:13.571Z,95.02
2022-10-11T19:56:18.354Z,94.43
2022-10-11T19:59:21.541Z,93.54
2022-10-11T20:02:24.497Z,92.38
2022-10-11T20:05:27.693Z,91.73
2022-10-11T20:08:31.592Z,91.99
2022-10-11T20:11:34.430Z,92.21
2022-10-11T20:14:36.941Z,92.45
2022-10-11T20:17:48.761Z,92.29
2022-10-11T20:20:53.305Z,92.57
2022-10-11T20:24:01.419Z,92.70
2022-10-11T20:27:04.955Z,92.12
2022-10-11T20:30:08.347Z,92.23
2022-10-11T20:33:14.105Z,92.20
2022-10-11T20:36:19.531Z,92.07
2022-10-11T20:39:22.068Z,92.11
2022-10-11T20:42:28.986Z,92.16
2022-10-11T20:45:32.396Z,92.55
2022-10-11T20:48:36.652Z,92.41
2022-10-11T20:51:41.525Z,92.85
2022-10-11T20:54:44.343Z,92.91
2022-10-11T20:57:46.829Z,93.39
2022-10-11T21:00:49.857Z,93.35
2022-10-11T21:03:52.544Z,93.30
2022-10-11T21:06:55.347Z,93.14
2022-10-11T21:09:58.884Z,92.66
2022-10-11T21:13:02.238Z,91.70
2022-10-11T21:16:11.404Z,90.94
2022-10-11T21:19:15.333Z,90.89
2022-10-11T21:22:17.840Z,90.10
2022-10-11T21:25:20.991Z,88.70
2022-10-11T21:28:23.547Z,88.28
2022-10-11T21:31:31.064Z,87.36
2022-10-11T21:34:35.385Z,86.82
2022-10-11T21:37:38.229Z,86.56
2022-10-11T21:40:41.093Z,85.68
2022-10-11T21:43:44.162Z,84.94
2022-10-11T21:47:07.135Z,85.03
2022-10-11T21:50:09.993Z,84.45
2022-10-11T21:53:12.504Z,83.89
2022-10-11T21:56:16.263Z,83.80
2022-10-11T21:59:18.757Z,84.19
2022-10-11T22:02:21.600Z,84.36
2022-10-11T22:05:24.633Z,84.31
2022-10-11T22:08:27.185Z,84.76
2022-10-11T22:11:30.460Z,85.27
2022-10-11T22:14:32.968Z,86.25
2022-10-11T22:17:35.927Z,85.99
2022-10-11T22:20:38.703Z,85.97
2022-10-11T22:23:43.351Z,86.26
2022-10-11T22:26:46.013Z,86.54
2022-10-11T22:29:48.802Z,86.70
2022-10-11T22:32:51.939Z,86.86
2022-10-11T22:35:59.520Z,87.87
2022-10-11T22:39:08.041Z,88.60
2022-10-11T22:42:11.068Z,89.32
2022-10-11T22:45:13.628Z,89.05
2022-10-11T22:48:16.496Z,89.11
2022-10-11T22:51:19.144Z,89.25
2022-10-11T22:54:22.045Z,89.30
2022-10-11T22:57:24.726Z,89.52
2022-10-11T23:00:27.892Z,89.49
2022-10-11T23:03:30.627Z,89.55
2022-10-11T23:06:33.512Z,89.47
2022-10-11T23:09:36.221Z,89.08
2022-10-11T23:12:39.158Z,88.81
2022-10-11T23:15:41.749Z,88.34
2022-10-11T23:18:44.615Z,88.30
2022-10-11T23:21:47.152Z,87.90
2022-10-11T23:24:50.087Z,87.66
2022-10-11T23:27:52.953Z,87.61
2022-10-11T23:30:55.758Z,87.85
2022-10-11T23:33:58.272Z,88.46
2022-10-11T23:37:01.941Z,89.14
2022-10-11T23:40:05.289Z,89.72
2022-10-11T23:43:08.434Z,90.89
2022-10-11T23:46:10.906Z,91.85
2022-10-11T23:49:13.759Z,92.51
2022-10-11T23:52:16.257Z,91.87
2022-10-11T23:55:19.097Z,90.38
2022-10-11T23:58:22.058Z,89.82
